Flight Track Log - Related Links

Times and Time Zones

All times are in EDT time to prevent confusion due to time zone crossing. See the GJS3710 flight status page for this flight to view local times or setup timezone preferences in your user account.

Time Position Orientation Groundspeed Altitude Reporting Facility
EDT Latitude Longitude Course Direction KTS MPH feet Rate Location/Type
Sun 10:40:02 PM 41.9833 -87.8333 86° East 183 211 2,300  Level Chicago TRACON
Sun 10:40:56 PM 42.0000 -87.7667 71° East 233 268 3,700 1,987 Climbing Chicago TRACON
Sun 10:42:00 PM 42.1579 -87.3763 66° East  Level FlightAware Approximate
Sun 10:42:36 PM 42.0169 -87.6028 82° East 292 336 7,400  Level Chicago Center
Sun 10:43:00 PM 42.2033 -87.2401 66° East  Level FlightAware Approximate
Sun 10:43:37 PM 42.0644 -87.5103 55° Northeast 302 348 9,600  Level Chicago Center
Sun 10:44:00 PM 42.2487 -87.1038 66° East  Level FlightAware Approximate
Sun 10:44:38 PM 42.1119 -87.4106 57° Northeast 313 360 11,900  Level Chicago Center
Sun 10:45:00 PM 42.2686 -86.9596 86° East  Level FlightAware Approximate
Sun 10:45:39 PM 42.1622 -87.3061 57° Northeast 328 377 13,700  Level Chicago Center
Sun 10:46:40 PM 42.1819 -87.1694 79° East 368 423 14,700 1,279 Climbing Chicago Center
Sun 10:47:41 PM 42.2050 -86.9917 80° East 396 456 16,300 1,475 Climbing Chicago Center
Sun 10:48:42 PM 42.2253 -86.8369 80° East 414 476 17,700 1,475 Climbing Chicago Center
Sun 10:49:43 PM 42.2444 -86.6781 81° East 427 491 19,300 1,525 Climbing Chicago Center
Sun 10:50:44 PM 42.2622 -86.5394 80° East 436 502 20,800 1,574 Climbing Chicago Center
Sun 10:51:45 PM 42.2825 -86.3806 80° East 432 497 22,500 1,537 Climbing Chicago Center
Sun 10:52:45 PM 42.3036 -86.1992 81° East 432 497 23,900 1,289 Climbing Chicago Center
Sun 10:53:46 PM 42.3142 -86.0350 85° East 446 513 25,100 1,131 Climbing Chicago Center
Sun 10:54:47 PM 42.3117 -85.8697 91° East 446 513 26,200 836 Climbing Chicago Center
Sun 10:55:48 PM 42.3103 -85.6986 91° East 457 526 26,800 738 Climbing Chicago Center
Sun 10:56:49 PM 42.3078 -85.5222 91° East 469 540 27,700 984 Climbing Chicago Center
Sun 10:57:50 PM 42.3058 -85.3461 91° East 472 543 28,800 1,107 Climbing Chicago Center
Sun 10:58:32 PM 42.3064 -85.2136 90° East 463 533 29,600 1,118 Climbing Cleveland Center
Sun 10:59:32 PM 42.3028 -85.0447 92° East 457 526 30,700 1,150 Climbing Cleveland Center
Sun 11:00:32 PM 42.3028 -84.8761 90° East 457 526 31,900 1,150 Climbing Cleveland Center
Sun 11:01:32 PM 42.2925 -84.7014 94° East 457 526 33,000 1,150 Climbing Cleveland Center
Sun 11:02:32 PM 42.2842 -84.5242 94° East 457 526 34,200 1,000 Climbing Cleveland Center
Sun 11:03:32 PM 42.3003 -84.3594 82° East 440 506 35,000 800 Climbing Cleveland Center
Sun 11:04:32 PM 42.3219 -84.2033 79° East 440 506 35,800 700 Climbing Cleveland Center
Sun 11:05:32 PM 42.3353 -84.0383 84° East 440 506 36,400 500 Climbing Cleveland Center
Sun 11:06:32 PM 42.3506 -83.8733 83° East 440 506 36,800 300 Climbing Cleveland Center
Sun 11:07:32 PM 42.3633 -83.7108 84° East 440 506 37,000 100 Climbing Cleveland Center
Sun 11:08:32 PM 42.3761 -83.5514 84° East 445 512 37,000  Level Cleveland Center
Sun 11:09:32 PM 42.3906 -83.3833 83° East 452 520 37,000  Level Cleveland Center
Sun 11:10:32 PM 42.4031 -83.2094 84° East 457 526 37,000  Level Cleveland Center
Sun 11:11:32 PM 42.4153 -83.0383 84° East 463 533 37,000  Level Cleveland Center
Sun 11:12:32 PM 42.4292 -82.8644 84° East 463 533 37,000  Level Cleveland Center
Sun 11:13:32 PM 42.4408 -82.6933 85° East 463 533 37,000  Level Cleveland Center
Sun 11:14:32 PM 42.4542 -82.5250 84° East 458 527 37,000  Level Cleveland Center
Sun 11:15:32 PM 42.4675 -82.3536 84° East 458 527 37,000  Level Cleveland Center
Sun 11:16:32 PM 42.4783 -82.1794 85° East 458 527 37,000  Level Cleveland Center
Sun 11:17:32 PM 42.4889 -82.0106 85° East 458 527 37,000  Level Cleveland Center
Sun 11:18:32 PM 42.5014 -81.8392 84° East 458 527 37,000  Level Cleveland Center
Sun 11:19:32 PM 42.5136 -81.6508 85° East 458 527 37,000  Level Cleveland Center
Sun 11:20:32 PM 42.5233 -81.4931 85° East 458 527 37,000  Level Cleveland Center
Sun 11:21:32 PM 42.5369 -81.3269 84° East 458 527 37,000  Level Cleveland Center
Sun 11:22:32 PM 42.5464 -81.1467 86° East 464 534 37,000  Level Cleveland Center
Sun 11:23:32 PM 42.5575 -80.9722 85° East 459 528 37,000  Level Cleveland Center
Sun 11:24:32 PM 42.5664 -80.8003 86° East 459 528 37,000  Level Cleveland Center
Sun 11:25:32 PM 42.5769 -80.6256 85° East 459 528 37,000  Level Cleveland Center
Sun 11:26:32 PM 42.5872 -80.4394 86° East 459 528 37,000  Level Cleveland Center
Sun 11:27:32 PM 42.5953 -80.2672 86° East 459 528 37,000  Level Cleveland Center
Sun 11:28:32 PM 42.6050 -80.0981 85° East 459 528 37,000  Level Cleveland Center
Sun 11:30:32 PM 42.6219 -79.7536 86° East 459 528 37,000  Level Cleveland Center
Sun 11:31:32 PM 42.6308 -79.5786 86° East 459 528 37,000  Level Cleveland Center
Sun 11:32:32 PM 42.6378 -79.4064 87° East 459 528 37,000  Level Cleveland Center
Sun 11:33:32 PM 42.6461 -79.2339 86° East 459 528 37,000  Level Cleveland Center
Sun 11:34:32 PM 42.6544 -79.0617 86° East 459 528 37,000  Level Cleveland Center
Sun 11:35:32 PM 42.6603 -78.8864 87° East 459 528 37,000  Level Cleveland Center
Sun 11:36:32 PM 42.6661 -78.7139 87° East 459 528 37,000 -500 Level Cleveland Center
Sun 11:37:32 PM 42.6736 -78.5386 87° East 459 528 36,000 -1,100 Descending Cleveland Center
Sun 11:38:32 PM 42.6808 -78.3661 87° East 459 528 34,800 -1,200 Descending Cleveland Center
Sun 11:39:32 PM 42.6856 -78.1908 88° East 459 528 33,600 -1,200 Descending Cleveland Center
Sun 11:40:32 PM 42.6922 -78.0153 87° East 459 528 32,400 -1,350 Descending Cleveland Center
Sun 11:41:32 PM 42.6964 -77.8400 88° East 459 528 30,900 -1,300 Descending Cleveland Center
Sun 11:42:32 PM 42.7031 -77.6758 87° East 473 544 29,800 -950 Descending Cleveland Center
Sun 11:43:32 PM 42.7067 -77.4947 88° East 480 552 29,000 -239 Descending Cleveland Center
Sun 11:45:53 PM 42.7172 -77.0556 88° East 477 549 29,000  Level Boston Center
Sun 11:46:53 PM 42.7222 -76.8781 88° East 472 543 29,000  Level Boston Center
Sun 11:47:53 PM 42.7250 -76.6972 89° East 472 543 29,000  Level Boston Center
Sun 11:48:53 PM 42.7297 -76.5164 88° East 477 549 29,000 -300 Level Boston Center
Sun 11:49:53 PM 42.7339 -76.3386 88° East 477 549 28,400 -1,250 Descending Boston Center
Sun 11:50:53 PM 42.7350 -76.1747 89° East 477 549 26,500 -1,900 Descending Boston Center
Sun 11:51:53 PM 42.7386 -76.0022 88° East 470 541 24,600 -1,900 Descending Boston Center
Sun 11:52:53 PM 42.7417 -75.8328 89° East 458 527 22,700 -1,900 Descending Boston Center
Sun 11:53:53 PM 42.7444 -75.6689 89° East 452 520 20,800 -1,900 Descending Boston Center
Sun 11:54:53 PM 42.7467 -75.5078 89° East 435 501 18,900 -1,800 Descending Boston Center
Sun 11:55:53 PM 42.7464 -75.3553 90° East 412 474 17,200 -1,800 Descending Boston Center
Sun 11:56:53 PM 42.7483 -75.2025 89° East 405 466 15,300 -1,700 Descending Boston Center
Sun 11:57:53 PM 42.7489 -75.0839 90° East 399 459 13,800 -1,682 Descending Boston Center
Sun 11:59:05 PM 42.7494 -74.8775 90° East 393 452 11,600 -1,615 Descending Boston Center
Sun 11:59:37 PM 42.7494 -74.7842 90° East 375 432 11,000 -600 Descending Boston Center
Mon 12:00:05 AM 42.7483 -74.7331 92° East 387 445 11,000  Level Boston Center
Mon 12:00:38 AM 42.7481 -74.6425 90° East 368 423 11,000  Level Boston Center
Mon 12:01:05 AM 42.7575 -74.5836 78° East 365 420 11,000  Level Boston Center
Mon 12:01:39 AM 42.7731 -74.5219 71° East 327 376 11,000  Level Boston Center
Mon 12:02:05 AM 42.7822 -74.4797 74° East 328 377 11,000 -500 Level Boston Center
Mon 12:02:39 AM 42.7981 -74.4122 72° East 292 336 10,500 -1,400 Descending Boston Center
Mon 12:03:05 AM 42.8072 -74.3617 76° East 296 341 9,600 -1,964 Descending Boston Center
Mon 12:03:34 AM 42.8183 -74.3139 72° East 295 339 8,700 -1,800 Descending Boston Center
Mon 12:04:05 AM 42.8297 -74.2633 73° East 296 341 7,800 -2,300 Descending Boston Center
Mon 12:04:34 AM 42.8431 -74.2069 72° East 296 341 6,400 -2,700 Descending Boston Center
Mon 12:05:05 AM 42.8544 -74.1450 76° East 296 341 5,100 -2,291 Descending Boston Center
Mon 12:05:29 AM 42.8633 -74.1086 72° East 293 337 4,300 -1,500 Descending Boston Center
Mon 12:06:05 AM 42.8767 -74.0522 72° East 296 341 3,600 -900 Descending Boston Center
Mon 12:06:29 AM 42.8878 -73.9986 74° East 290 334 3,400 -700 Descending Boston Center
Mon 12:07:05 AM 42.8989 -73.9422 75° East 281 323 2,900 -984 Descending Boston Center
Mon 12:07:30 AM 42.9078 -73.9083 70° East 246 283 2,400 -900 Descending Boston Center
Mon 12:08:05 AM 42.9125 -73.8575 83° East 247 284 2,000 -393 Descending Boston Center
Mon 12:08:31 AM 42.8942 -73.8372 141° Southeast 199 229 2,000  Level Boston Center
Mon 12:09:05 AM 42.8714 -73.8111 140° Southeast 180 207 2,000  Level Boston Center
Mon 12:09:25 AM 42.8547 -73.8136 186° South 149 171 2,000  Level Boston Center
Mon 12:10:05 AM 42.8556 -73.7486 89° East 168 193 2,000 -492 Level Boston Center
Mon 12:10:26 AM 42.8194 -73.8100 231° Southwest 126 145 1,500 -889 Descending Boston Center
Mon 12:11:26 AM 42.7839 -73.8064 176° South 117 135 800 -700 Descending Boston Center

Login

Don't have an account? Register now (free) for customized features, flight alerts, and more!